createdAt,value
2018-06-21T00:02:04.200Z,97810.69
2018-06-21T00:04:32.605Z,97811.42
2018-06-21T00:07:01.062Z,97810.18
2018-06-21T00:09:29.547Z,97804.48
2018-06-21T00:11:57.955Z,97801.16
2018-06-21T00:14:26.410Z,97803.32
2018-06-21T00:16:54.925Z,97804.88
2018-06-21T00:19:23.373Z,97800.67
2018-06-21T00:21:51.880Z,97797.22
2018-06-21T00:24:20.676Z,97802.61
2018-06-21T00:26:49.168Z,97808.82
2018-06-21T00:29:17.942Z,97809.91
2018-06-21T00:31:46.318Z,97801.95
2018-06-21T00:34:14.969Z,97801.44
2018-06-21T00:36:43.418Z,97796.20
2018-06-21T00:39:12.561Z,97792.09
2018-06-21T00:41:41.133Z,97790.59
2018-06-21T00:44:09.657Z,97787.63
2018-06-21T00:46:38.029Z,97783.67
2018-06-21T00:49:06.990Z,97783.09
2018-06-21T00:51:35.489Z,97785.27
2018-06-21T00:54:03.971Z,97789.53
2018-06-21T00:56:32.600Z,97783.58
2018-06-21T00:59:01.086Z,97783.66
2018-06-21T01:01:30.223Z,97779.62
2018-06-21T01:03:59.184Z,97773.56
2018-06-21T01:06:27.709Z,97774.57
2018-06-21T01:08:56.266Z,97769.16
2018-06-21T01:11:24.788Z,97770.90
2018-06-21T01:13:53.465Z,97766.58
2018-06-21T01:16:22.646Z,97762.97
2018-06-21T01:18:51.655Z,97764.59
2018-06-21T01:21:20.125Z,97768.13
2018-06-21T01:23:48.750Z,97762.36
2018-06-21T01:26:17.412Z,97767.41
2018-06-21T01:28:45.888Z,97761.53
2018-06-21T01:31:14.363Z,97768.95
2018-06-21T01:33:42.832Z,97766.26
2018-06-21T01:36:11.361Z,97771.66
2018-06-21T01:38:39.899Z,97768.06
2018-06-21T01:41:08.332Z,97759.98
2018-06-21T01:43:36.764Z,97760.42
2018-06-21T01:46:05.604Z,97759.84
2018-06-21T01:48:34.015Z,97760.64
2018-06-21T01:51:02.707Z,97757.78
2018-06-21T01:53:31.095Z,97755.84
2018-06-21T01:55:59.497Z,97756.92
2018-06-21T01:58:27.957Z,97754.40
2018-06-21T02:00:56.794Z,97754.40
2018-06-21T02:03:25.183Z,97749.06
2018-06-21T02:05:53.673Z,97746.69
2018-06-21T02:08:22.861Z,97745.97
2018-06-21T02:10:51.359Z,97745.23
2018-06-21T02:13:20.033Z,97736.31
2018-06-21T02:15:48.523Z,97730.86
2018-06-21T02:18:17.090Z,97738.14
2018-06-21T02:20:45.700Z,97723.52
2018-06-21T02:23:14.125Z,97721.79
2018-06-21T02:25:42.570Z,97726.39
2018-06-21T02:28:11.034Z,97725.02
2018-06-21T02:30:39.790Z,97725.91
2018-06-21T02:33:08.420Z,97729.65
2018-06-21T02:35:36.916Z,97725.17
2018-06-21T02:38:05.402Z,97727.34
2018-06-21T02:40:34.267Z,97721.35
2018-06-21T02:43:02.657Z,97723.08
2018-06-21T02:45:31.166Z,97713.09
2018-06-21T02:47:59.589Z,97714.30
2018-06-21T02:50:28.161Z,97710.77
2018-06-21T02:52:56.958Z,97709.98
2018-06-21T02:55:25.455Z,97706.45
2018-06-21T02:57:54.518Z,97707.48
2018-06-21T03:00:23.239Z,97698.13
2018-06-21T03:02:51.754Z,97701.92
2018-06-21T03:05:20.281Z,97702.13
2018-06-21T03:07:48.748Z,97705.89
2018-06-21T03:10:17.474Z,97700.06
2018-06-21T03:12:45.948Z,97697.83
2018-06-21T03:15:14.509Z,97700.05
2018-06-21T03:17:42.952Z,97703.70
2018-06-21T03:20:11.429Z,97704.03
2018-06-21T03:22:39.967Z,97713.79
2018-06-21T03:25:08.738Z,97710.43
2018-06-21T03:27:37.148Z,97716.56
2018-06-21T03:30:05.678Z,97704.47
2018-06-21T03:32:34.406Z,97700.95
2018-06-21T03:35:02.924Z,97693.67
2018-06-21T03:37:31.325Z,97696.45
2018-06-21T03:39:59.955Z,97695.61
2018-06-21T03:42:28.459Z,97695.39
2018-06-21T03:44:56.882Z,97699.14
2018-06-21T03:47:25.342Z,97705.45
2018-06-21T03:49:53.812Z,97704.44
2018-06-21T03:52:22.370Z,97713.52
2018-06-21T03:54:50.730Z,97709.86
2018-06-21T03:57:19.392Z,97710.27
2018-06-21T03:59:47.941Z,97710.12
2018-06-21T04:02:16.550Z,97707.84
2018-06-21T04:04:45.383Z,97700.16
2018-06-21T04:07:13.976Z,97710.59
2018-06-21T04:09:42.466Z,97711.17
2018-06-21T04:12:10.963Z,97712.81
2018-06-21T04:14:39.469Z,97716.95
2018-06-21T04:17:07.943Z,97719.95
2018-06-21T04:19:36.500Z,97726.66
2018-06-21T04:22:04.994Z,97734.81
2018-06-21T04:24:34.095Z,97734.69
2018-06-21T04:27:02.865Z,97732.74
2018-06-21T04:29:31.476Z,97729.30
2018-06-21T04:32:00.141Z,97701.27
2018-06-21T04:34:28.839Z,97736.61
2018-06-21T04:36:58.209Z,97731.70
2018-06-21T04:39:26.903Z,97725.17
2018-06-21T04:43:55.124Z,97735.13
2018-06-21T04:46:23.677Z,97726.39
2018-06-21T04:48:52.125Z,97720.57
2018-06-21T04:51:20.691Z,97719.50
2018-06-21T04:53:49.090Z,97724.88
2018-06-21T04:56:17.551Z,97722.37
2018-06-21T04:58:45.969Z,97727.63
2018-06-21T05:01:14.534Z,97723.08
2018-06-21T05:03:42.922Z,97720.92
2018-06-21T05:06:11.913Z,97721.07
2018-06-21T05:08:41.083Z,97713.95
2018-06-21T05:11:10.286Z,97719.69
2018-06-21T05:13:38.799Z,97714.95
2018-06-21T05:16:07.833Z,97718.34
2018-06-21T05:18:36.347Z,97719.27
2018-06-21T05:21:04.773Z,97716.23
2018-06-21T05:23:33.192Z,97722.86
2018-06-21T05:26:02.390Z,97718.44
2018-06-21T05:28:31.160Z,97711.80
2018-06-21T05:30:59.653Z,97712.05
2018-06-21T05:33:28.205Z,97726.60
2018-06-21T05:35:56.672Z,97717.55
2018-06-21T05:38:25.173Z,97724.63
2018-06-21T05:40:53.573Z,97717.49
2018-06-21T05:43:22.215Z,97722.61
2018-06-21T05:45:50.694Z,97715.18
2018-06-21T05:48:19.285Z,97717.41
2018-06-21T05:50:47.783Z,97717.78
2018-06-21T05:53:16.265Z,97715.61
2018-06-21T05:55:44.926Z,97708.98
2018-06-21T05:58:13.451Z,97714.30
2018-06-21T06:00:41.997Z,97718.50
2018-06-21T06:03:10.649Z,97721.77
2018-06-21T06:05:39.180Z,97727.91
2018-06-21T06:08:07.697Z,97725.30
2018-06-21T06:10:36.106Z,97721.83
2018-06-21T06:13:04.584Z,97719.23
2018-06-21T06:15:33.197Z,97717.87
2018-06-21T06:18:01.622Z,97712.38
2018-06-21T06:20:30.047Z,97715.38
2018-06-21T06:22:59.328Z,97708.69
2018-06-21T06:25:27.695Z,97705.02
2018-06-21T06:27:56.131Z,97706.41
2018-06-21T06:30:24.712Z,97703.56
2018-06-21T06:32:53.166Z,97709.03
2018-06-21T06:35:21.772Z,97714.58
2018-06-21T06:37:50.253Z,97709.56
2018-06-21T06:40:18.794Z,97705.06
2018-06-21T06:42:47.384Z,97708.18
2018-06-21T06:45:15.857Z,97709.78
2018-06-21T06:47:44.587Z,97703.68
2018-06-21T06:50:13.007Z,97706.77
2018-06-21T06:52:41.449Z,97706.15
2018-06-21T06:55:09.927Z,97696.58
2018-06-21T06:57:38.372Z,97699.77
2018-06-21T07:00:07.302Z,97694.14
2018-06-21T07:02:35.749Z,97694.61
2018-06-21T07:05:04.299Z,97696.88
2018-06-21T07:07:33.054Z,97694.65
2018-06-21T07:10:01.639Z,97694.42
2018-06-21T07:12:30.159Z,97692.31
2018-06-21T07:14:58.613Z,97692.36
2018-06-21T07:17:27.109Z,97693.55
2018-06-21T07:19:55.540Z,97680.25
2018-06-21T07:22:24.158Z,97686.34
2018-06-21T07:24:53.625Z,97688.11
2018-06-21T07:27:22.623Z,97686.56
2018-06-21T07:29:51.145Z,97684.40
2018-06-21T07:32:19.598Z,97684.84
2018-06-21T07:34:48.026Z,97687.81
2018-06-21T07:37:16.427Z,97686.72
2018-06-21T07:39:44.946Z,97687.73
2018-06-21T07:42:13.502Z,97687.58
2018-06-21T07:44:41.940Z,97691.34
2018-06-21T07:47:10.449Z,97677.20
2018-06-21T07:49:39.704Z,97672.91
2018-06-21T07:52:08.212Z,97679.80
2018-06-21T07:54:37.417Z,97676.66
2018-06-21T07:57:06.181Z,97675.47
2018-06-21T07:59:34.607Z,97674.47
2018-06-21T08:02:03.089Z,97669.37
2018-06-21T08:04:31.518Z,97678.02
2018-06-21T08:06:59.936Z,97673.88
2018-06-21T08:09:28.417Z,97668.37
2018-06-21T08:11:57.077Z,97674.45
2018-06-21T08:14:26.160Z,97666.67
2018-06-21T08:16:55.783Z,97674.36
2018-06-21T08:19:24.219Z,97670.41
2018-06-21T08:21:53.780Z,97666.52
2018-06-21T08:24:22.429Z,97668.49
2018-06-21T08:26:50.956Z,97673.27
2018-06-21T08:29:19.580Z,97674.05
2018-06-21T08:31:48.069Z,97670.14
2018-06-21T08:34:16.692Z,97672.67
2018-06-21T08:36:45.220Z,97666.20
2018-06-21T08:39:13.722Z,97674.84
2018-06-21T08:41:42.206Z,97678.19
2018-06-21T08:44:10.653Z,97673.46
2018-06-21T08:46:39.232Z,97668.48
2018-06-21T08:49:07.675Z,97678.48
2018-06-21T08:51:36.230Z,97681.81
2018-06-21T08:54:05.405Z,97676.72
2018-06-21T08:56:33.911Z,97686.08
2018-06-21T08:59:02.445Z,97682.53
2018-06-21T09:01:30.865Z,97689.38
2018-06-21T09:04:00.563Z,97684.27
2018-06-21T09:06:28.983Z,97681.51
2018-06-21T09:08:57.545Z,97677.98
2018-06-21T09:11:27.142Z,97676.19
2018-06-21T09:13:55.580Z,97679.08
2018-06-21T09:16:24.226Z,97680.24
2018-06-21T09:18:53.376Z,97683.22
2018-06-21T09:21:21.772Z,97690.66
2018-06-21T09:23:50.249Z,97683.73
2018-06-21T09:26:19.582Z,97688.72
2018-06-21T09:28:48.059Z,97689.69
2018-06-21T09:31:16.516Z,97685.73
2018-06-21T09:33:45.088Z,97691.90
2018-06-21T09:36:13.664Z,97693.27
2018-06-21T09:38:47.378Z,97693.35
2018-06-21T09:41:21.583Z,97707.37
2018-06-21T09:44:03.820Z,97694.92
2018-06-21T09:46:33.870Z,97700.53
2018-06-21T09:48:57.870Z,97703.28
2018-06-21T09:51:26.361Z,97709.84
2018-06-21T09:53:54.861Z,97716.88
2018-06-21T09:56:24.098Z,97725.98
2018-06-21T09:58:52.527Z,97725.09
2018-06-21T10:01:21.048Z,97724.73
2018-06-21T10:03:49.541Z,97729.70
2018-06-21T10:06:18.139Z,97734.27
2018-06-21T10:08:46.692Z,97734.66
2018-06-21T10:11:15.426Z,97733.86
2018-06-21T10:13:43.838Z,97743.05
2018-06-21T10:16:12.669Z,97729.48
2018-06-21T10:18:41.850Z,97731.34
2018-06-21T10:21:10.488Z,97733.16
2018-06-21T10:23:39.055Z,97735.25
2018-06-21T10:26:07.567Z,97733.05
2018-06-21T10:28:36.095Z,97733.30
2018-06-21T10:31:05.167Z,97731.88
2018-06-21T10:33:33.588Z,97712.89
2018-06-21T10:36:02.155Z,97725.53
2018-06-21T10:38:30.612Z,97735.33
2018-06-21T10:40:59.094Z,97731.97
2018-06-21T10:43:27.640Z,97733.35
2018-06-21T10:45:56.140Z,97723.77
2018-06-21T10:48:24.597Z,97725.10
2018-06-21T10:50:53.135Z,97721.63
2018-06-21T10:53:21.698Z,97722.76
2018-06-21T10:55:50.279Z,97729.52
2018-06-21T10:58:18.786Z,97723.10
2018-06-21T11:00:47.421Z,97724.98
2018-06-21T11:03:15.952Z,97724.80
2018-06-21T11:05:44.535Z,97732.41
2018-06-21T11:08:13.117Z,97722.19
2018-06-21T11:10:41.632Z,97728.05
2018-06-21T11:13:10.445Z,97725.33
2018-06-21T11:15:38.938Z,97717.62
2018-06-21T11:18:09.165Z,97717.38
2018-06-21T11:20:37.870Z,97723.36
2018-06-21T11:23:06.394Z,97727.27
2018-06-21T11:25:34.916Z,97726.34
2018-06-21T11:28:03.475Z,97723.19
2018-06-21T11:30:32.127Z,97716.16
2018-06-21T11:33:00.656Z,97714.30
2018-06-21T11:35:29.129Z,97713.39
2018-06-21T11:37:57.779Z,97710.81
2018-06-21T11:40:26.335Z,97711.78
2018-06-21T11:42:54.826Z,97713.95
2018-06-21T11:45:23.546Z,97711.66
2018-06-21T11:47:52.032Z,97709.93
2018-06-21T11:50:20.595Z,97716.83
2018-06-21T11:52:49.159Z,97718.94
2018-06-21T11:55:18.329Z,97713.39
2018-06-21T11:57:46.914Z,97715.45
2018-06-21T12:00:15.992Z,97713.38
2018-06-21T12:02:44.463Z,97719.82
2018-06-21T12:05:14.154Z,97714.47
2018-06-21T12:07:42.614Z,97714.95
2018-06-21T12:10:11.098Z,97719.84
2018-06-21T12:12:39.670Z,97713.52
2018-06-21T12:15:08.175Z,97712.50
2018-06-21T12:17:36.940Z,97710.52
2018-06-21T12:20:05.370Z,97718.79
2018-06-21T12:22:33.844Z,97719.83
2018-06-21T12:25:02.455Z,97719.95
2018-06-21T12:27:30.971Z,97710.04
2018-06-21T12:29:59.475Z,97704.45
2018-06-21T12:32:27.928Z,97711.45
2018-06-21T12:34:56.390Z,97703.67
2018-06-21T12:37:24.795Z,97703.15
2018-06-21T12:39:53.297Z,97698.94
2018-06-21T12:42:21.735Z,97696.69
2018-06-21T12:44:50.293Z,97697.97
2018-06-21T12:47:18.798Z,97700.39
2018-06-21T12:49:47.217Z,97707.48
2018-06-21T12:52:15.793Z,97710.45
2018-06-21T12:54:44.224Z,97704.17
2018-06-21T12:57:12.738Z,97703.38
2018-06-21T12:59:41.947Z,97704.30
2018-06-21T13:02:10.432Z,97694.97
2018-06-21T13:04:38.920Z,97698.09
2018-06-21T13:07:07.386Z,97708.59
2018-06-21T13:09:47.176Z,97693.44
2018-06-21T13:12:30.990Z,97702.57
2018-06-21T13:14:59.523Z,97696.20
2018-06-21T13:17:29.383Z,97703.33
2018-06-21T13:19:58.638Z,97701.38
2018-06-21T13:22:27.676Z,97717.27
2018-06-21T13:24:56.115Z,97710.88
2018-06-21T13:27:24.571Z,97711.82
2018-06-21T13:29:53.075Z,97704.66
2018-06-21T13:32:21.591Z,97706.09
2018-06-21T13:34:50.419Z,97712.78
2018-06-21T13:37:18.967Z,97709.22
2018-06-21T13:39:47.456Z,97707.00
2018-06-21T13:42:16.081Z,97704.36
2018-06-21T13:44:44.704Z,97700.94
2018-06-21T13:47:13.524Z,97706.04
2018-06-21T13:49:42.021Z,97702.16
2018-06-21T13:52:10.471Z,97699.17
2018-06-21T13:54:39.002Z,97701.97
2018-06-21T13:57:07.462Z,97700.73
2018-06-21T13:59:35.965Z,97702.20
2018-06-21T14:02:04.751Z,97703.24
2018-06-21T14:04:33.206Z,97696.28
2018-06-21T14:07:02.292Z,97687.50
2018-06-21T14:09:30.711Z,97694.62
2018-06-21T14:11:59.436Z,97685.68
2018-06-21T14:14:27.872Z,97681.23
2018-06-21T14:16:56.406Z,97691.92
2018-06-21T14:19:24.885Z,97690.32
2018-06-21T14:21:53.473Z,97695.61
2018-06-21T14:24:22.061Z,97690.69
2018-06-21T14:26:50.542Z,97699.13
2018-06-21T14:29:19.018Z,97703.28
2018-06-21T14:31:48.211Z,97708.36
2018-06-21T14:34:16.686Z,97714.34
2018-06-21T14:36:45.897Z,97706.45
2018-06-21T14:39:14.560Z,97714.00
2018-06-21T14:41:43.104Z,97726.43
2018-06-21T14:44:11.751Z,97722.55
2018-06-21T14:46:46.187Z,97740.62
2018-06-21T14:49:14.678Z,97741.81
2018-06-21T14:51:43.182Z,97742.11
2018-06-21T14:54:12.256Z,97746.27
2018-06-21T14:56:40.854Z,97709.12
2018-06-21T14:59:09.290Z,97738.11
2018-06-21T15:01:37.992Z,97748.62
2018-06-21T15:04:06.463Z,97753.98
2018-06-21T15:06:34.936Z,97744.85
2018-06-21T15:09:08.197Z,97755.92
2018-06-21T15:11:38.148Z,97756.70
2018-06-21T15:14:08.451Z,97749.59
2018-06-21T15:16:38.341Z,97757.81
2018-06-21T15:19:08.312Z,97761.82
2018-06-21T15:21:38.171Z,97744.98
2018-06-21T15:24:08.427Z,97759.61
2018-06-21T15:26:38.533Z,97751.95
2018-06-21T15:29:08.496Z,97757.80
2018-06-21T15:31:38.276Z,97757.03
2018-06-21T15:34:08.707Z,97755.63
2018-06-21T15:36:39.184Z,97754.44
2018-06-21T15:39:24.770Z,97757.23
2018-06-21T15:41:54.520Z,97755.85
2018-06-21T15:44:24.517Z,97756.05
2018-06-21T15:46:54.805Z,97754.84
2018-06-21T15:49:24.733Z,97754.84
2018-06-21T15:51:54.597Z,97765.09
2018-06-21T15:54:24.392Z,97765.08
2018-06-21T15:56:53.483Z,97772.36
2018-06-21T15:59:22.092Z,97773.92
2018-06-21T16:01:50.561Z,97758.41
2018-06-21T16:04:19.211Z,97765.07
2018-06-21T16:06:48.893Z,97766.02
2018-06-21T16:09:18.161Z,97768.80
2018-06-21T16:11:46.723Z,97775.34
2018-06-21T16:14:16.437Z,97771.36
2018-06-21T16:16:48.967Z,97771.17
2018-06-21T16:19:17.531Z,97768.00
2018-06-21T16:21:45.992Z,97773.34
2018-06-21T16:24:14.477Z,97774.64
2018-06-21T16:26:42.993Z,97767.80
2018-06-21T16:29:11.494Z,97766.14
2018-06-21T16:31:40.142Z,97772.32
2018-06-21T16:34:13.305Z,97773.44
2018-06-21T16:36:44.377Z,97766.45
2018-06-21T16:39:16.170Z,97773.50
2018-06-21T16:41:45.442Z,97780.91
2018-06-21T16:44:14.718Z,97792.19
2018-06-21T16:46:43.295Z,97790.80
2018-06-21T16:49:11.794Z,97783.47
2018-06-21T16:51:40.269Z,97789.23
2018-06-21T16:54:08.857Z,97795.50
2018-06-21T16:56:37.410Z,97795.26
2018-06-21T16:59:06.031Z,97790.10
2018-06-21T17:01:34.492Z,97798.93
2018-06-21T17:04:03.020Z,97794.45
2018-06-21T17:06:31.567Z,97797.66
2018-06-21T17:09:00.038Z,97794.91
2018-06-21T17:11:28.759Z,97798.80
2018-06-21T17:13:57.274Z,97792.44
2018-06-21T17:16:25.806Z,97802.44
2018-06-21T17:18:54.312Z,97802.70
2018-06-21T17:21:22.950Z,97803.27
2018-06-21T17:23:51.456Z,97805.14
2018-06-21T17:26:19.987Z,97806.30
2018-06-21T17:28:48.624Z,97807.38
2018-06-21T17:31:17.133Z,97807.13
2018-06-21T17:33:45.667Z,97809.31
2018-06-21T17:36:14.296Z,97805.63
2018-06-21T17:38:43.308Z,97812.30
2018-06-21T17:41:12.037Z,97825.88
2018-06-21T17:43:40.619Z,97835.89
2018-06-21T17:46:10.051Z,97841.23
2018-06-21T17:48:38.532Z,97841.53
2018-06-21T17:51:07.018Z,97850.64
2018-06-21T17:53:35.548Z,97849.50
2018-06-21T17:56:04.112Z,97855.92
2018-06-21T17:58:32.653Z,97851.93
2018-06-21T18:01:01.380Z,97846.46
2018-06-21T18:03:29.883Z,97860.73
2018-06-21T18:05:58.989Z,97865.10
2018-06-21T18:08:28.151Z,97871.30
2018-06-21T18:10:56.674Z,97872.76
2018-06-21T18:13:25.186Z,97875.80
2018-06-21T18:15:53.785Z,97884.66
2018-06-21T18:18:23.077Z,97880.70
2018-06-21T18:20:52.621Z,97888.17
2018-06-21T18:23:22.285Z,97895.58
2018-06-21T18:25:53.730Z,97895.86
2018-06-21T18:28:24.271Z,97899.65
2018-06-21T18:30:53.275Z,97908.86
2018-06-21T18:33:21.933Z,97919.70
2018-06-21T18:35:50.695Z,97928.95
2018-06-21T18:38:19.343Z,97943.22
2018-06-21T18:40:47.888Z,97942.28
2018-06-21T18:43:17.405Z,97958.64
2018-06-21T18:45:47.765Z,97958.33
2018-06-21T18:48:17.618Z,97967.97
2018-06-21T18:50:47.492Z,97979.09
2018-06-21T18:53:17.596Z,97978.09
2018-06-21T18:55:47.441Z,97984.77
2018-06-21T18:58:17.090Z,97992.79
2018-06-21T19:00:46.550Z,98002.11
2018-06-21T19:03:15.233Z,98013.63
2018-06-21T19:05:43.679Z,98005.83
2018-06-21T19:08:18.105Z,98011.53
2018-06-21T19:10:52.741Z,98014.55
2018-06-21T19:13:21.625Z,98022.16
2018-06-21T19:15:50.952Z,98022.88
2018-06-21T19:18:20.370Z,98024.92
2018-06-21T19:20:50.571Z,98041.11
2018-06-21T19:23:19.610Z,98036.92
2018-06-21T19:25:49.051Z,98041.20
2018-06-21T19:28:18.380Z,98042.39
2018-06-21T19:30:47.822Z,98049.52
2018-06-21T19:33:16.305Z,98048.07
2018-06-21T19:35:45.789Z,98054.86
2018-06-21T19:38:14.786Z,98058.04
2018-06-21T19:40:44.334Z,98063.30
2018-06-21T19:43:14.607Z,98066.03
2018-06-21T19:45:43.756Z,98067.14
2018-06-21T19:48:13.593Z,98074.87
2018-06-21T19:50:42.980Z,98075.27
2018-06-21T19:53:13.395Z,98088.25
2018-06-21T19:55:44.212Z,98094.19
2018-06-21T19:58:14.381Z,98096.59
2018-06-21T20:00:43.417Z,98106.71
2018-06-21T20:03:12.651Z,98112.75
2018-06-21T20:05:41.933Z,98109.33
2018-06-21T20:08:11.546Z,98121.05
2018-06-21T20:10:40.925Z,98135.78
2018-06-21T20:13:10.284Z,98127.98
2018-06-21T20:15:55.841Z,98135.72
2018-06-21T20:18:24.722Z,98143.97
2018-06-21T20:20:54.063Z,98131.50
2018-06-21T20:23:22.607Z,98138.20
2018-06-21T20:25:53.877Z,98132.42
2018-06-21T20:28:22.502Z,98150.95
2018-06-21T20:30:51.472Z,98157.28
2018-06-21T20:33:19.921Z,98155.13
2018-06-21T20:35:48.415Z,98165.34
2018-06-21T20:38:16.987Z,98168.06
2018-06-21T20:40:45.402Z,98175.55
2018-06-21T20:43:13.919Z,98177.05
2018-06-21T20:45:42.504Z,98177.81
2018-06-21T20:48:10.993Z,98182.16
2018-06-21T20:50:39.446Z,98182.79
2018-06-21T20:53:07.990Z,98181.58
2018-06-21T20:55:36.641Z,98182.76
2018-06-21T20:58:05.392Z,98182.55
2018-06-21T21:00:33.990Z,98187.60
2018-06-21T21:03:02.437Z,98193.75
2018-06-21T21:05:30.889Z,98199.80
2018-06-21T21:08:00.324Z,98202.80
2018-06-21T21:10:28.785Z,98213.58
2018-06-21T21:12:57.326Z,98215.76
2018-06-21T21:15:26.020Z,98215.18
2018-06-21T21:17:54.561Z,98218.69
2018-06-21T21:20:23.114Z,98224.95
2018-06-21T21:22:51.572Z,98233.88
2018-06-21T21:25:20.253Z,98232.20
2018-06-21T21:27:48.720Z,98232.16
2018-06-21T21:30:17.188Z,98237.56
2018-06-21T21:32:45.921Z,98238.39
2018-06-21T21:35:14.377Z,98241.23
2018-06-21T21:37:43.603Z,98242.16
2018-06-21T21:40:12.104Z,98247.13
2018-06-21T21:42:40.638Z,98249.17
2018-06-21T21:45:09.194Z,98257.57
2018-06-21T21:47:37.812Z,98264.20
2018-06-21T21:50:06.405Z,98269.68
2018-06-21T21:52:35.011Z,98269.77
2018-06-21T21:55:03.524Z,98266.58
2018-06-21T21:57:31.965Z,98268.74
2018-06-21T22:00:00.950Z,98276.43
2018-06-21T22:02:29.437Z,98281.29
2018-06-21T22:04:58.014Z,98283.83
2018-06-21T22:07:26.449Z,98282.33
2018-06-21T22:09:54.904Z,98292.67
2018-06-21T22:12:23.621Z,98292.02
2018-06-21T22:14:52.062Z,98294.31
2018-06-21T22:17:20.515Z,98296.58
2018-06-21T22:19:48.956Z,98301.86
2018-06-21T22:22:17.472Z,98299.74
2018-06-21T22:24:45.937Z,98298.05
2018-06-21T22:27:14.381Z,98308.22
2018-06-21T22:29:42.826Z,98315.10
2018-06-21T22:32:11.283Z,98315.98
2018-06-21T22:34:39.675Z,98312.55
2018-06-21T22:37:08.178Z,98317.51
2018-06-21T22:39:36.615Z,98319.64
2018-06-21T22:42:05.070Z,98331.41
2018-06-21T22:44:33.530Z,98324.28
2018-06-21T22:47:02.063Z,98292.81
2018-06-21T22:49:31.193Z,98327.80
2018-06-21T22:51:59.663Z,98329.35
2018-06-21T22:54:28.128Z,98329.33
2018-06-21T22:56:56.653Z,98333.02
2018-06-21T22:59:25.290Z,98329.27
2018-06-21T23:01:53.775Z,98331.92
2018-06-21T23:04:22.472Z,98328.84
2018-06-21T23:06:50.985Z,98334.63
2018-06-21T23:09:19.510Z,98330.09
2018-06-21T23:11:48.128Z,98330.32
2018-06-21T23:14:17.281Z,98333.02
2018-06-21T23:16:45.745Z,98323.41
2018-06-21T23:19:25.556Z,98331.80
2018-06-21T23:21:54.241Z,98333.14
2018-06-21T23:24:23.327Z,98335.23
2018-06-21T23:26:52.284Z,98333.39
2018-06-21T23:29:20.806Z,98339.39
2018-06-21T23:31:49.605Z,98346.55
2018-06-21T23:34:18.608Z,98344.75
2018-06-21T23:36:47.114Z,98342.37
2018-06-21T23:39:15.549Z,98338.87
2018-06-21T23:41:44.368Z,98339.70
2018-06-21T23:44:13.975Z,98346.45
2018-06-21T23:46:43.247Z,98351.05
2018-06-21T23:49:12.135Z,98349.19
2018-06-21T23:51:40.783Z,98351.02
2018-06-21T23:54:11.175Z,98356.04
2018-06-21T23:56:39.900Z,98352.12
2018-06-21T23:59:08.436Z,98354.33
